ESMT/HAD METAR and TAF weather

Enter ICAO airport designator
Station Type Date Time Source
ESMT METAR 2020/02/20 23:20 UTC NOAA

ESMT 202320Z 21020KT 5000 RA FEW008 SCT012 BKN017 06/05 Q0996


Station Type Date Time Source
ESMT Decoded METAR 2020/02/20 23:20 UTC NOAA

Halmstad Swedish Air Force Base , Sweden (ESMT) 56-41N 012-50E
Feb 20, 2020 - 06:20 PM EST / 2020.02.20 2320 UTC
Wind: from the SSW (210 degrees) at 23 MPH (20 KT):0
Visibility: 3 mile(s):0
Sky conditions: mostly cloudy
Weather: rain
Temperature: 42 F (6 C)
Dew Point: 41 F (5 C)
Relative Humidity: 93%
Pressure (altimeter): 29.41 in. Hg (0996 hPa)
ob: ESMT 202320Z 21020KT 5000 RA FEW008 SCT012 BKN017 06/05 Q0996
cycle: 23

Station Type Date Time Source
ESMT TAF 2017/04/24 06:33 UTC NOAA

TAF TAF ESMT 240513Z 2406/2506 22018KT 9999 BKN018
TEMPO 2406/2413 22018G30KT 4000 RADZ BKN008
TEMPO 2413/2415 24020G30KT 4000 SHRA BKN014 SCT020CB

Example: see airport list